createdAt,value
2018-12-27T00:01:33.809Z,69.84
2018-12-27T00:04:05.157Z,69.42
2018-12-27T00:06:36.548Z,69.42
2018-12-27T00:09:09.079Z,69.40
2018-12-27T00:11:40.417Z,69.95
2018-12-27T00:14:12.791Z,69.95
2018-12-27T00:16:44.366Z,69.63
2018-12-27T00:19:15.973Z,70.09
2018-12-27T00:21:47.954Z,70.09
2018-12-27T00:24:19.312Z,69.78
2018-12-27T00:26:50.952Z,69.85
2018-12-27T00:29:23.367Z,70.84
2018-12-27T00:31:54.820Z,70.84
2018-12-27T00:34:26.048Z,70.73
2018-12-27T00:36:57.302Z,70.74
2018-12-27T00:39:28.430Z,70.58
2018-12-27T00:42:00.600Z,70.98
2018-12-27T00:44:32.382Z,71.18
2018-12-27T00:47:04.052Z,71.55
2018-12-27T00:49:35.961Z,71.49
2018-12-27T00:52:07.184Z,71.87
2018-12-27T00:54:38.461Z,71.87
2018-12-27T00:57:09.670Z,72.01
2018-12-27T00:59:40.985Z,72.01
2018-12-27T01:02:13.451Z,72.03
2018-12-27T01:04:44.759Z,72.12
2018-12-27T01:07:16.500Z,71.81
2018-12-27T01:09:47.885Z,71.57
2018-12-27T01:12:19.264Z,72.00
2018-12-27T01:14:51.173Z,71.92
2018-12-27T01:17:22.321Z,72.31
2018-12-27T01:19:53.671Z,72.31
2018-12-27T01:22:25.294Z,71.95
2018-12-27T01:24:56.974Z,71.47
2018-12-27T01:27:28.388Z,71.93
2018-12-27T01:29:59.845Z,71.11
2018-12-27T01:32:31.485Z,71.11
2018-12-27T01:35:03.161Z,71.78
2018-12-27T01:37:34.836Z,72.17
2018-12-27T01:40:06.236Z,72.11
2018-12-27T01:42:37.518Z,72.11
2018-12-27T01:45:09.370Z,71.08
2018-12-27T01:47:40.790Z,69.19
2018-12-27T01:50:12.332Z,66.86
2018-12-27T01:52:43.949Z,66.60
2018-12-27T01:55:15.688Z,66.00
2018-12-27T01:57:47.345Z,65.50
2018-12-27T02:00:19.066Z,65.50
2018-12-27T02:02:50.332Z,65.50
2018-12-27T02:05:22.022Z,65.26
2018-12-27T02:07:53.927Z,65.26
2018-12-27T02:10:25.185Z,65.00
2018-12-27T02:12:56.649Z,65.00
2018-12-27T02:15:28.517Z,64.92
2018-12-27T02:17:59.707Z,64.73
2018-12-27T02:20:31.425Z,64.62
2018-12-27T02:23:02.607Z,65.27
2018-12-27T02:25:34.051Z,65.24
2018-12-27T02:28:05.269Z,65.28
2018-12-27T02:30:36.601Z,65.20
2018-12-27T02:33:08.580Z,65.20
2018-12-27T02:35:40.452Z,64.91
2018-12-27T02:38:12.462Z,65.17
2018-12-27T02:40:43.805Z,65.01
2018-12-27T02:43:15.346Z,65.01
2018-12-27T02:45:46.957Z,64.89
2018-12-27T02:48:18.292Z,64.89
2018-12-27T02:50:49.840Z,65.10
2018-12-27T02:53:21.366Z,65.03
2018-12-27T02:55:52.940Z,65.03
2018-12-27T02:58:24.067Z,64.63
2018-12-27T03:00:55.149Z,64.63
2018-12-27T03:03:26.458Z,64.39
2018-12-27T03:05:57.950Z,64.36
2018-12-27T03:08:29.280Z,65.17
2018-12-27T03:11:00.520Z,64.54
2018-12-27T03:13:31.781Z,64.15
2018-12-27T03:16:03.385Z,64.15
2018-12-27T03:18:34.747Z,64.81
2018-12-27T03:21:06.060Z,64.81
2018-12-27T03:23:37.418Z,65.04
2018-12-27T03:26:08.575Z,65.04
2018-12-27T03:28:39.844Z,65.04
2018-12-27T03:31:11.102Z,65.56
2018-12-27T03:33:42.675Z,65.80
2018-12-27T03:36:14.248Z,66.20
2018-12-27T03:38:46.267Z,66.20
2018-12-27T03:41:17.719Z,66.72
2018-12-27T03:43:49.351Z,66.66
2018-12-27T03:46:21.325Z,66.66
2018-12-27T03:48:53.092Z,66.62
2018-12-27T03:51:24.419Z,66.62
2018-12-27T03:53:55.656Z,66.58
2018-12-27T03:56:27.325Z,66.58
2018-12-27T03:58:58.702Z,66.82
2018-12-27T04:01:29.917Z,66.78
2018-12-27T04:04:01.799Z,66.57
2018-12-27T04:06:33.223Z,66.57
2018-12-27T04:09:05.455Z,66.55
2018-12-27T04:11:36.728Z,66.50
2018-12-27T04:14:08.097Z,66.71
2018-12-27T04:16:40.039Z,66.71
2018-12-27T04:19:11.590Z,66.32
2018-12-27T04:21:42.958Z,66.32
2018-12-27T04:24:15.101Z,65.95
2018-12-27T04:26:46.371Z,66.07
2018-12-27T04:29:18.224Z,66.08
2018-12-27T04:31:50.797Z,66.08
2018-12-27T04:34:22.656Z,65.60
2018-12-27T04:36:56.194Z,65.60
2018-12-27T04:39:28.416Z,65.61
2018-12-27T04:42:00.400Z,65.61
2018-12-27T04:44:32.294Z,65.70
2018-12-27T04:47:04.778Z,65.81
2018-12-27T04:49:36.418Z,65.74
2018-12-27T04:52:08.110Z,65.63
2018-12-27T04:54:39.672Z,65.63
2018-12-27T04:57:11.000Z,65.83
2018-12-27T04:59:42.643Z,64.58
2018-12-27T05:02:13.949Z,65.14
2018-12-27T05:04:45.237Z,64.82
2018-12-27T05:07:16.551Z,64.82
2018-12-27T05:09:47.566Z,62.32
2018-12-27T05:12:18.768Z,62.52
2018-12-27T05:14:49.980Z,61.56
2018-12-27T05:17:21.873Z,60.16
2018-12-27T05:19:53.072Z,59.55
2018-12-27T05:22:24.261Z,59.55
2018-12-27T05:24:55.553Z,59.64
2018-12-27T05:27:26.583Z,58.68
2018-12-27T05:29:57.704Z,57.36
2018-12-27T05:32:28.863Z,57.36
2018-12-27T05:34:59.903Z,56.11
2018-12-27T05:37:31.529Z,55.21
2018-12-27T05:40:02.755Z,55.21
2018-12-27T05:42:34.590Z,55.88
2018-12-27T05:45:06.261Z,55.88
2018-12-27T05:47:38.082Z,55.21
2018-12-27T05:50:09.659Z,55.50
2018-12-27T05:52:43.077Z,55.50
2018-12-27T05:55:15.222Z,54.76
2018-12-27T05:57:47.141Z,53.76
2018-12-27T06:00:18.705Z,54.43
2018-12-27T06:02:50.117Z,54.43
2018-12-27T06:05:21.578Z,52.83
2018-12-27T06:07:52.946Z,54.11
2018-12-27T06:10:24.387Z,53.53
2018-12-27T06:12:55.632Z,53.53
2018-12-27T06:15:26.887Z,52.08
2018-12-27T06:17:58.527Z,52.08
2018-12-27T06:20:29.621Z,52.33
2018-12-27T06:23:01.162Z,51.36
2018-12-27T06:25:32.270Z,50.67
2018-12-27T06:28:03.933Z,49.43
2018-12-27T06:30:35.576Z,50.07
2018-12-27T06:33:07.236Z,50.14
2018-12-27T06:35:38.562Z,50.14
2018-12-27T06:38:10.119Z,48.42
2018-12-27T06:40:41.654Z,48.42
2018-12-27T06:43:13.261Z,48.09
2018-12-27T06:45:44.883Z,46.37
2018-12-27T06:48:16.830Z,47.62
2018-12-27T06:50:48.505Z,49.34
2018-12-27T06:53:20.246Z,49.02
2018-12-27T06:55:54.939Z,49.02
2018-12-27T06:58:29.373Z,48.42
2018-12-27T07:01:02.685Z,47.44
2018-12-27T07:03:36.304Z,47.75
2018-12-27T07:06:09.946Z,47.88
2018-12-27T07:08:45.222Z,48.74
2018-12-27T07:11:17.501Z,47.23
2018-12-27T07:13:52.009Z,47.87
2018-12-27T07:16:23.893Z,49.26
2018-12-27T07:18:55.692Z,49.26
2018-12-27T07:21:27.404Z,48.54
2018-12-27T07:23:58.682Z,46.98
2018-12-27T07:26:33.957Z,45.42
2018-12-27T07:29:05.653Z,46.96
2018-12-27T07:31:37.016Z,46.96
2018-12-27T07:34:08.278Z,46.35
2018-12-27T07:36:47.162Z,46.02
2018-12-27T07:39:18.390Z,47.70
2018-12-27T07:41:49.930Z,47.20
2018-12-27T07:44:21.120Z,47.33
2018-12-27T07:46:52.365Z,47.15
2018-12-27T07:49:24.049Z,47.15
2018-12-27T07:51:55.349Z,47.84
2018-12-27T07:54:29.026Z,47.84
2018-12-27T07:57:04.499Z,46.46
2018-12-27T07:59:35.753Z,46.53
2018-12-27T08:02:07.410Z,46.09
2018-12-27T08:04:38.785Z,46.59
2018-12-27T08:07:09.876Z,46.59
2018-12-27T08:09:41.631Z,45.85
2018-12-27T08:12:14.649Z,47.83
2018-12-27T08:14:45.915Z,47.83
2018-12-27T08:17:17.334Z,46.66
2018-12-27T08:19:49.069Z,45.99
2018-12-27T08:22:20.215Z,45.99
2018-12-27T08:24:51.465Z,46.27
2018-12-27T08:27:22.744Z,46.27
2018-12-27T08:29:54.213Z,47.22
2018-12-27T08:32:25.624Z,45.78
2018-12-27T08:34:57.921Z,45.05
2018-12-27T08:37:33.522Z,44.85
2018-12-27T08:40:06.629Z,44.85
2018-12-27T08:42:38.187Z,46.67
2018-12-27T08:45:09.695Z,46.67
2018-12-27T08:47:41.431Z,47.28
2018-12-27T08:50:13.498Z,49.59
2018-12-27T08:52:44.921Z,50.35
2018-12-27T08:55:16.440Z,49.65
2018-12-27T08:57:55.885Z,48.62
2018-12-27T09:00:28.013Z,48.62
2018-12-27T09:02:59.374Z,48.72
2018-12-27T09:05:30.925Z,48.41
2018-12-27T09:08:02.263Z,46.93
2018-12-27T09:10:33.735Z,46.93
2018-12-27T09:13:05.158Z,49.13
2018-12-27T09:15:36.922Z,47.41
2018-12-27T09:18:08.588Z,47.41
2018-12-27T09:20:41.797Z,49.67
2018-12-27T09:23:13.423Z,49.67
2018-12-27T09:25:45.641Z,50.79
2018-12-27T09:28:17.363Z,50.79
2018-12-27T09:30:48.824Z,50.90
2018-12-27T09:33:20.429Z,50.89
2018-12-27T09:35:56.950Z,50.54
2018-12-27T09:38:28.974Z,50.54
2018-12-27T09:41:00.320Z,52.43
2018-12-27T09:43:31.776Z,52.43
2018-12-27T09:46:08.176Z,50.75
2018-12-27T09:48:39.738Z,50.75
2018-12-27T09:51:11.563Z,50.66
2018-12-27T09:53:43.459Z,50.61
2018-12-27T09:56:14.894Z,51.20
2018-12-27T09:58:46.578Z,51.44
2018-12-27T10:01:18.155Z,52.16
2018-12-27T10:03:49.420Z,52.75
2018-12-27T10:06:20.810Z,52.18
2018-12-27T10:08:52.375Z,52.60
2018-12-27T10:11:23.985Z,52.79
2018-12-27T10:13:55.427Z,53.33
2018-12-27T10:16:26.913Z,53.33
2018-12-27T10:18:58.806Z,53.36
2018-12-27T10:21:33.678Z,53.36
2018-12-27T10:24:06.449Z,55.13
2018-12-27T10:26:37.936Z,54.80
2018-12-27T10:29:09.437Z,55.06
2018-12-27T10:31:40.835Z,55.43
2018-12-27T10:34:12.658Z,55.41
2018-12-27T10:36:44.484Z,55.41
2018-12-27T10:39:15.989Z,55.96
2018-12-27T10:41:47.333Z,55.78
2018-12-27T10:44:18.741Z,55.48
2018-12-27T10:46:49.815Z,55.48
2018-12-27T10:49:21.425Z,55.86
2018-12-27T10:51:53.101Z,56.07
2018-12-27T10:54:24.580Z,56.44
2018-12-27T10:56:55.813Z,56.63
2018-12-27T10:59:27.371Z,56.82
2018-12-27T11:01:58.722Z,57.26
2018-12-27T11:04:30.295Z,57.26
2018-12-27T11:07:01.597Z,57.30
2018-12-27T11:09:33.296Z,57.55
2018-12-27T11:12:04.703Z,57.55
2018-12-27T11:14:36.400Z,57.65
2018-12-27T11:17:07.920Z,57.68
2018-12-27T11:19:41.891Z,57.88
2018-12-27T11:22:13.877Z,57.97
2018-12-27T11:24:45.323Z,57.90
2018-12-27T11:27:16.797Z,57.90
2018-12-27T11:29:48.444Z,58.34
2018-12-27T11:32:20.307Z,58.34
2018-12-27T11:34:51.517Z,58.60
2018-12-27T11:37:23.218Z,58.87
2018-12-27T11:39:54.650Z,58.87
2018-12-27T11:42:25.882Z,58.98
2018-12-27T11:44:57.330Z,58.92
2018-12-27T11:47:28.597Z,59.02
2018-12-27T11:50:00.010Z,59.02
2018-12-27T11:52:31.930Z,59.39
2018-12-27T11:55:03.476Z,59.39
2018-12-27T11:57:34.797Z,59.35
2018-12-27T12:00:06.756Z,59.38
2018-12-27T12:02:38.050Z,59.59
2018-12-27T12:05:09.520Z,59.59
2018-12-27T12:07:40.806Z,59.61
2018-12-27T12:10:12.469Z,59.69
2018-12-27T12:12:44.149Z,59.91
2018-12-27T12:15:15.751Z,59.94
2018-12-27T12:17:47.242Z,59.77
2018-12-27T12:20:19.009Z,59.77
2018-12-27T12:22:50.744Z,59.99
2018-12-27T12:25:22.085Z,60.11
2018-12-27T12:27:53.712Z,59.83
2018-12-27T12:30:25.148Z,59.84
2018-12-27T12:32:56.667Z,59.92
2018-12-27T12:35:28.295Z,60.09
2018-12-27T12:38:00.612Z,60.09
2018-12-27T12:40:31.971Z,60.25
2018-12-27T12:43:03.197Z,60.42
2018-12-27T12:45:34.594Z,60.42
2018-12-27T12:48:06.063Z,60.43
2018-12-27T12:50:37.417Z,60.43
2018-12-27T12:53:10.524Z,60.30
2018-12-27T12:55:41.829Z,60.35
2018-12-27T12:58:13.563Z,60.35
2018-12-27T13:00:44.905Z,60.29
2018-12-27T13:03:16.341Z,60.28
2018-12-27T13:05:47.612Z,60.28
2018-12-27T13:08:19.316Z,60.31
2018-12-27T13:10:50.656Z,60.28
2018-12-27T13:13:21.934Z,60.15
2018-12-27T13:15:53.171Z,60.06
2018-12-27T13:18:24.470Z,60.06
2018-12-27T13:20:55.860Z,60.42
2018-12-27T13:23:27.395Z,60.66
2018-12-27T13:25:58.956Z,60.77
2018-12-27T13:28:30.222Z,61.09
2018-12-27T13:31:02.058Z,61.09
2018-12-27T13:33:33.630Z,61.24
2018-12-27T13:36:05.155Z,61.43
2018-12-27T13:38:36.668Z,61.59
2018-12-27T13:41:08.378Z,61.62
2018-12-27T13:43:39.750Z,61.85
2018-12-27T13:46:12.507Z,61.85
2018-12-27T13:48:44.247Z,61.66
2018-12-27T13:51:15.752Z,61.54
2018-12-27T13:53:47.239Z,61.39
2018-12-27T13:56:18.904Z,61.39
2018-12-27T13:58:50.302Z,61.54
2018-12-27T14:01:21.504Z,61.55
2018-12-27T14:03:52.758Z,61.44
2018-12-27T14:06:24.531Z,61.44
2018-12-27T14:08:56.253Z,61.00
2018-12-27T14:11:27.861Z,61.00
2018-12-27T14:13:59.442Z,60.68
2018-12-27T14:16:31.164Z,60.86
2018-12-27T14:19:02.537Z,60.86
2018-12-27T14:21:33.997Z,60.96
2018-12-27T14:24:09.761Z,61.01
2018-12-27T14:26:40.953Z,61.01
2018-12-27T14:29:12.409Z,60.90
2018-12-27T14:31:43.916Z,61.91
2018-12-27T14:34:16.701Z,62.09
2018-12-27T14:36:47.933Z,62.17
2018-12-27T14:39:19.923Z,62.18
2018-12-27T14:41:51.693Z,62.06
2018-12-27T14:44:22.963Z,61.98
2018-12-27T14:46:54.463Z,61.98
2018-12-27T14:49:25.862Z,61.67
2018-12-27T14:51:57.250Z,61.61
2018-12-27T14:54:29.251Z,61.52
2018-12-27T14:57:00.719Z,61.75
2018-12-27T14:59:31.936Z,61.62
2018-12-27T15:02:03.539Z,61.09
2018-12-27T15:04:35.253Z,61.09
2018-12-27T15:07:06.791Z,61.40
2018-12-27T15:09:38.059Z,61.72
2018-12-27T15:12:09.520Z,61.71
2018-12-27T15:14:40.687Z,61.71
2018-12-27T15:17:12.223Z,61.63
2018-12-27T15:19:43.453Z,61.38
2018-12-27T15:22:14.620Z,61.49
2018-12-27T15:24:46.500Z,61.48
2018-12-27T15:27:18.102Z,61.52
2018-12-27T15:29:54.010Z,61.40
2018-12-27T15:32:27.556Z,61.40
2018-12-27T15:34:59.120Z,61.73
2018-12-27T15:37:30.691Z,61.73
2018-12-27T15:40:02.171Z,61.50
2018-12-27T15:42:33.646Z,61.37
2018-12-27T15:45:05.257Z,61.54
2018-12-27T15:47:36.517Z,61.54
2018-12-27T15:50:08.331Z,61.63
2018-12-27T15:52:39.897Z,61.77
2018-12-27T15:55:11.458Z,61.94
2018-12-27T15:57:43.939Z,61.96
2018-12-27T16:00:15.508Z,62.08
2018-12-27T16:02:48.481Z,62.08
2018-12-27T16:05:19.761Z,62.19
2018-12-27T16:07:51.250Z,62.50
2018-12-27T16:10:22.521Z,62.50
2018-12-27T16:12:53.876Z,62.29
2018-12-27T16:15:25.223Z,62.31
2018-12-27T16:17:56.681Z,62.13
2018-12-27T16:20:28.104Z,62.59
2018-12-27T16:22:59.294Z,62.59
2018-12-27T16:25:31.038Z,62.53
2018-12-27T16:28:02.579Z,62.49
2018-12-27T16:30:34.118Z,62.41
2018-12-27T16:33:05.339Z,62.34
2018-12-27T16:35:36.829Z,62.29
2018-12-27T16:38:08.764Z,62.18
2018-12-27T16:40:40.389Z,62.14
2018-12-27T16:43:11.518Z,61.77
2018-12-27T16:45:43.107Z,62.07
2018-12-27T16:48:15.074Z,62.07
2018-12-27T16:50:46.502Z,61.98
2018-12-27T16:53:17.756Z,61.98
2018-12-27T16:55:49.566Z,61.89
2018-12-27T16:58:21.047Z,61.89
2018-12-27T17:00:52.337Z,62.18
2018-12-27T17:03:24.011Z,62.24
2018-12-27T17:05:56.479Z,62.52
2018-12-27T17:08:28.022Z,62.98
2018-12-27T17:10:59.360Z,62.59
2018-12-27T17:13:30.711Z,63.09
2018-12-27T17:16:02.189Z,63.03
2018-12-27T17:18:33.792Z,63.03
2018-12-27T17:21:05.168Z,62.75
2018-12-27T17:23:36.458Z,62.69
2018-12-27T17:26:08.423Z,62.97
2018-12-27T17:28:40.023Z,62.87
2018-12-27T17:31:11.415Z,62.79
2018-12-27T17:33:42.795Z,62.80
2018-12-27T17:36:14.255Z,62.83
2018-12-27T17:38:45.563Z,63.11
2018-12-27T17:41:16.727Z,63.11
2018-12-27T17:43:48.508Z,63.18
2018-12-27T17:46:20.335Z,63.18
2018-12-27T17:48:52.058Z,63.30
2018-12-27T17:51:23.303Z,63.30
2018-12-27T17:53:54.564Z,63.71
2018-12-27T17:56:27.219Z,63.71
2018-12-27T17:58:58.909Z,63.34
2018-12-27T18:01:30.647Z,63.93
2018-12-27T18:04:02.036Z,63.93
2018-12-27T18:06:33.299Z,63.61
2018-12-27T18:09:05.986Z,64.12
2018-12-27T18:11:37.640Z,64.12
2018-12-27T18:14:09.068Z,64.12
2018-12-27T18:16:40.524Z,64.06
2018-12-27T18:19:11.941Z,63.94
2018-12-27T18:21:43.381Z,63.94
2018-12-27T18:24:14.744Z,64.29
2018-12-27T18:26:46.671Z,64.22
2018-12-27T18:29:18.040Z,64.17
2018-12-27T18:31:49.216Z,64.68
2018-12-27T18:34:20.686Z,63.89
2018-12-27T18:36:51.947Z,64.45
2018-12-27T18:39:23.294Z,64.46
2018-12-27T18:41:54.446Z,64.30
2018-12-27T18:44:25.856Z,64.30
2018-12-27T18:46:57.417Z,64.06
2018-12-27T18:49:28.986Z,64.06
2018-12-27T18:52:00.692Z,64.72
2018-12-27T18:54:31.994Z,64.50
2018-12-27T18:57:03.633Z,64.42
2018-12-27T18:59:34.862Z,64.36
2018-12-27T19:02:06.431Z,64.36
2018-12-27T19:04:38.547Z,64.36
2018-12-27T19:07:09.971Z,64.36
2018-12-27T19:09:41.504Z,64.11
2018-12-27T19:12:47.873Z,64.11
2018-12-27T19:15:22.578Z,64.26
2018-12-27T19:18:23.315Z,64.26
2018-12-27T19:20:59.556Z,64.23
2018-12-27T19:23:31.803Z,64.00
2018-12-27T19:26:02.946Z,63.85
2018-12-27T19:28:34.757Z,63.69
2018-12-27T19:31:06.282Z,63.69
2018-12-27T19:33:38.513Z,63.95
2018-12-27T19:36:10.082Z,64.02
2018-12-27T19:38:41.497Z,63.86
2018-12-27T19:41:12.939Z,63.86
2018-12-27T19:43:44.338Z,64.13
2018-12-27T19:46:17.363Z,63.93
2018-12-27T19:48:51.448Z,64.00
2018-12-27T19:51:22.984Z,64.11
2018-12-27T19:53:54.505Z,64.11
2018-12-27T19:56:26.339Z,63.95
2018-12-27T19:58:57.814Z,63.94
2018-12-27T20:01:29.284Z,63.96
2018-12-27T20:04:00.490Z,63.89
2018-12-27T20:06:33.469Z,63.89
2018-12-27T20:09:06.633Z,63.91
2018-12-27T20:11:37.961Z,64.02
2018-12-27T20:14:09.172Z,64.26
2018-12-27T20:16:41.075Z,64.26
2018-12-27T20:19:12.326Z,63.84
2018-12-27T20:21:43.738Z,64.16
2018-12-27T20:24:14.944Z,64.16
2018-12-27T20:26:46.175Z,64.28
2018-12-27T20:29:17.959Z,64.23
2018-12-27T20:31:49.287Z,64.35
2018-12-27T20:34:20.346Z,64.63
2018-12-27T20:36:51.619Z,64.63
2018-12-27T20:39:22.844Z,64.58
2018-12-27T20:41:54.476Z,64.34
2018-12-27T20:44:25.744Z,64.57
2018-12-27T20:46:56.970Z,64.36
2018-12-27T20:49:28.520Z,64.36
2018-12-27T20:52:00.351Z,64.25
2018-12-27T20:54:31.557Z,64.51
2018-12-27T20:57:03.174Z,64.32
2018-12-27T20:59:35.237Z,64.32
2018-12-27T21:02:06.593Z,64.76
2018-12-27T21:04:38.511Z,64.45
2018-12-27T21:07:10.026Z,64.45
2018-12-27T21:09:41.241Z,64.79
2018-12-27T21:12:12.573Z,64.79
2018-12-27T21:14:44.241Z,64.47
2018-12-27T21:17:15.534Z,64.47
2018-12-27T21:19:46.873Z,64.84
2018-12-27T21:22:18.371Z,64.84
2018-12-27T21:24:50.018Z,64.87
2018-12-27T21:27:21.634Z,64.60
2018-12-27T21:29:53.534Z,64.47
2018-12-27T21:32:25.001Z,64.47
2018-12-27T21:34:56.817Z,64.62
2018-12-27T21:37:28.257Z,64.57
2018-12-27T21:39:59.498Z,64.57
2018-12-27T21:42:30.941Z,64.89
2018-12-27T21:45:02.220Z,65.16
2018-12-27T21:47:34.070Z,65.16
2018-12-27T21:50:05.709Z,65.50
2018-12-27T21:52:37.624Z,65.48
2018-12-27T21:55:08.999Z,65.48
2018-12-27T21:57:40.243Z,65.18
2018-12-27T22:00:12.249Z,65.30
2018-12-27T22:02:43.596Z,65.05
2018-12-27T22:05:14.904Z,64.90
2018-12-27T22:07:46.269Z,64.75
2018-12-27T22:10:17.529Z,65.16
2018-12-27T22:12:48.764Z,65.16
2018-12-27T22:15:19.966Z,64.88
2018-12-27T22:17:51.202Z,64.94
2018-12-27T22:20:22.255Z,64.94
2018-12-27T22:22:53.753Z,64.99
2018-12-27T22:25:24.947Z,65.04
2018-12-27T22:27:56.213Z,64.92
2018-12-27T22:30:28.404Z,65.00
2018-12-27T22:32:59.833Z,64.76
2018-12-27T22:35:30.987Z,64.76
2018-12-27T22:38:02.660Z,64.79
2018-12-27T22:40:34.129Z,64.94
2018-12-27T22:43:05.429Z,65.22
2018-12-27T22:45:36.771Z,65.15
2018-12-27T22:48:08.288Z,65.45
2018-12-27T22:50:39.605Z,65.45
2018-12-27T22:53:11.804Z,64.65
2018-12-27T22:55:55.890Z,64.92
2018-12-27T22:58:27.096Z,65.15
2018-12-27T23:00:59.899Z,65.15
2018-12-27T23:03:31.241Z,65.00
2018-12-27T23:06:02.566Z,64.92
2018-12-27T23:08:34.261Z,64.76
2018-12-27T23:11:06.122Z,64.92
2018-12-27T23:13:37.564Z,64.92
2018-12-27T23:16:09.126Z,65.62
2018-12-27T23:18:40.370Z,65.95
2018-12-27T23:21:11.540Z,65.42
2018-12-27T23:23:43.064Z,65.42
2018-12-27T23:26:14.523Z,66.28
2018-12-27T23:28:46.023Z,66.19
2018-12-27T23:31:18.194Z,66.19
2018-12-27T23:33:49.867Z,65.71
2018-12-27T23:36:21.401Z,66.03
2018-12-27T23:38:53.116Z,66.03
2018-12-27T23:41:24.904Z,66.18
2018-12-27T23:43:56.422Z,65.99
2018-12-27T23:46:27.730Z,65.62
2018-12-27T23:48:58.974Z,65.64
2018-12-27T23:51:30.510Z,65.93
2018-12-27T23:54:02.687Z,65.93
2018-12-27T23:56:34.156Z,65.89
2018-12-27T23:59:05.358Z,65.76
